Time;durP1;ratioP1;P1;durP2;ratioP2;P2;SDS_P1;SDS_P2;PMS_P1;PMS_P2;Temp;Humidity;BMP_temperature;BMP_pressure;BME280_temperature;BME280_humidity;BME280_pressure;Samples;Min_cycle;Max_cycle;Signal;HPM_P1;HPM_P2
2023/09/30 00:05:48;;;;;;;27.13;13.73;;;;;;;13.62;100.00;96622.66;7434006;19;20469;-95
2023/09/30 00:08:56;;;;;;;29.73;14.70;;;;;;;13.63;100.00;96612.84;7433802;19;20374;-95
2023/09/30 00:12:12;;;;;;;23.07;14.30;;;;;;;14.08;100.00;96615.94;7431540;19;20428;-95
2023/09/30 00:15:40;;;;;;;26.97;15.27;;;;;;;13.77;100.00;96565.38;7433857;19;20423;-95
2023/09/30 00:44:57;;;;;;;26.47;13.90;;;;;;;11.98;100.00;96448.06;7432765;19;20431;-95
2023/09/30 02:22:04;;;;;;;14.83;8.60;;;;;;;14.01;100.00;96639.66;7428100;19;20452;-94
2023/09/30 02:24:45;;;;;;;21.43;9.30;;;;;;;12.84;100.00;96467.25;7430015;19;20389;-95
2023/09/30 02:27:34;;;;;;;14.37;9.77;;;;;;;13.95;100.00;96634.94;7434057;19;20393;-93
2023/09/30 02:30:16;;;;;;;18.77;9.70;;;;;;;12.98;100.00;96498.75;7429484;19;20392;-93
2023/09/30 02:33:16;;;;;;;16.37;9.60;;;;;;;13.84;100.00;96632.78;7429228;19;20385;-93
2023/09/30 02:36:20;;;;;;;16.00;8.83;;;;;;;13.93;100.00;96637.94;7429925;19;20393;-94
2023/09/30 02:39:01;;;;;;;12.90;9.27;;;;;;;14.04;100.00;96628.38;7429471;19;20405;-94
2023/09/30 02:42:01;;;;;;;15.90;9.17;;;;;;;12.98;100.00;96480.94;7428598;19;20433;-95
2023/09/30 02:44:49;;;;;;;14.33;8.00;;;;;;;13.96;100.00;96636.50;7429249;19;20400;-95
2023/09/30 02:47:55;;;;;;;14.97;9.30;;;;;;;12.75;100.00;96445.41;7429204;19;20428;-94
2023/09/30 02:50:46;;;;;;;19.40;9.80;;;;;;;14.07;100.00;96635.66;7428940;19;20421;-95
2023/09/30 02:53:33;;;;;;;13.33;9.27;;;;;;;13.89;100.00;96629.13;7430363;19;20389;-95
2023/09/30 02:56:26;;;;;;;15.57;8.47;;;;;;;13.94;100.00;96642.16;7429750;19;20392;-94
2023/09/30 02:59:27;;;;;;;13.87;7.83;;;;;;;14.00;100.00;96651.41;7428550;19;20377;-95
2023/09/30 03:02:29;;;;;;;14.83;8.87;;;;;;;14.06;100.00;96652.72;7426598;19;20416;-93
2023/09/30 03:05:27;;;;;;;15.37;8.50;;;;;;;12.72;100.00;96464.66;7429109;19;20428;-94
2023/09/30 03:08:25;;;;;;;15.00;7.90;;;;;;;14.14;100.00;96674.94;7428711;19;20657;-94
2023/09/30 03:11:34;;;;;;;12.23;6.57;;;;;;;14.01;100.00;96679.53;7424936;19;20412;-94
2023/09/30 03:14:18;;;;;;;13.33;7.60;;;;;;;13.28;100.00;96581.53;7426092;19;20369;-93
2023/09/30 03:17:28;;;;;;;13.93;8.73;;;;;;;13.78;100.00;96658.06;7425933;19;20428;-93
2023/09/30 03:23:38;;;;;;;13.33;7.40;;;;;;;14.00;100.00;96662.06;7425816;19;20380;-94
2023/09/30 03:26:24;;;;;;;12.37;6.50;;;;;;;13.57;100.00;96625.56;7424796;19;20443;-94
2023/09/30 03:29:15;;;;;;;10.73;7.07;;;;;;;12.18;100.00;96382.78;7425460;19;20387;-93
2023/09/30 03:32:02;;;;;;;12.90;7.03;;;;;;;12.87;100.00;96522.31;7425156;19;20424;-94
2023/09/30 03:34:46;;;;;;;15.50;7.00;;;;;;;13.90;100.00;96659.91;7434286;19;20416;-94
2023/09/30 03:37:28;;;;;;;10.90;7.30;;;;;;;13.38;100.00;96573.09;7433878;19;20396;-93
2023/09/30 03:40:33;;;;;;;12.17;6.70;;;;;;;13.18;100.00;96569.47;7432298;19;20416;-94
2023/09/30 03:43:15;;;;;;;11.97;6.80;;;;;;;12.32;100.00;96425.63;7433036;19;20368;-92
2023/09/30 03:46:03;;;;;;;9.37;6.30;;;;;;;12.37;100.00;96428.03;7432363;19;20376;-94
2023/09/30 03:48:38;;;;;;;17.37;6.93;;;;;;;13.16;100.00;96547.00;7435306;19;20420;-94
2023/09/30 03:51:47;;;;;;;12.60;6.90;;;;;;;13.77;100.00;96659.19;7429352;19;20408;-95
2023/09/30 03:54:44;;;;;;;12.17;6.63;;;;;;;13.47;100.00;96610.88;7430912;19;20389;-94
2023/09/30 03:57:33;;;;;;;16.17;7.80;;;;;;;13.88;100.00;96662.09;7431311;19;20376;-94
2023/09/30 04:00:40;;;;;;;12.10;7.13;;;;;;;12.66;100.00;96525.09;7432929;19;20420;-96
2023/09/30 04:13:19;;;;;;;14.93;7.20;;;;;;;12.61;100.00;96514.75;7434582;19;20952;-94
2023/09/30 04:16:18;;;;;;;13.97;7.00;;;;;;;12.25;100.00;96475.00;7432706;19;20444;-94
2023/09/30 04:19:10;;;;;;;16.03;8.33;;;;;;;12.24;100.00;96462.84;7430787;19;20391;-93
2023/09/30 04:22:10;;;;;;;11.77;6.73;;;;;;;12.21;100.00;96482.84;7425910;19;20371;-94
2023/09/30 04:32:27;;;;;;;13.00;7.47;;;;;;;12.33;100.00;96622.59;7427458;19;20381;-94
2023/09/30 04:36:10;;;;;;;7.30;5.07;;;;;;;12.46;100.00;96705.59;7429151;19;20361;-95
2023/09/30 13:20:13;;;;;;;3.53;2.50;;;;;;;16.20;98.73;96711.63;7364899;19;20477;-94
2023/09/30 13:22:53;;;;;;;3.63;2.70;;;;;;;17.24;96.83;96814.94;7425351;19;20440;-93
2023/09/30 13:25:34;;;;;;;3.60;2.40;;;;;;;16.29;94.45;96724.72;7428242;19;20388;-94
2023/09/30 13:28:32;;;;;;;7.13;3.17;;;;;;;17.30;92.14;96814.28;7424714;19;20372;-93
2023/09/30 13:31:15;;;;;;;4.43;2.47;;;;;;;17.71;91.64;96850.09;7425020;19;20415;-94
2023/09/30 13:33:56;;;;;;;3.03;2.33;;;;;;;17.36;88.65;96810.19;7431345;19;20389;-93
2023/09/30 13:37:17;;;;;;;2.83;2.50;;;;;;;19.00;88.37;96900.00;7432225;19;20390;-94
2023/09/30 23:11:11;;;;;;;4.60;3.70;;;;;;;6.18;100.00;96707.25;7425851;19;20405;-95
2023/09/30 23:13:53;;;;;;;4.63;2.83;;;;;;;6.47;100.00;96789.22;7424088;19;20384;-93
2023/09/30 23:16:34;;;;;;;4.60;4.13;;;;;;;6.05;100.00;96705.38;7424413;19;20377;-94
2023/09/30 23:19:28;;;;;;;5.00;3.50;;;;;;;7.66;100.00;96947.28;7425418;19;20373;-94
2023/09/30 23:22:39;;;;;;;5.67;2.90;;;;;;;7.68;100.00;96948.53;7422919;19;20377;-94
2023/09/30 23:25:34;;;;;;;3.20;3.00;;;;;;;6.61;100.00;96802.38;7423197;19;20377;-94
2023/09/30 23:28:34;;;;;;;7.90;3.30;;;;;;;7.62;100.00;96946.31;7425177;19;20391;-93
2023/09/30 23:31:07;;;;;;;5.73;3.23;;;;;;;5.66;100.00;96682.06;7422872;19;20444;-93
2023/09/30 23:33:48;;;;;;;3.13;2.93;;;;;;;7.01;100.00;96937.59;7426209;19;20376;-94
2023/09/30 23:36:38;;;;;;;3.40;2.97;;;;;;;6.30;100.00;96806.59;7423695;19;20372;-94
2023/09/30 23:39:36;;;;;;;3.80;3.50;;;;;;;6.63;100.00;96849.38;7422760;19;20376;-93
2023/09/30 23:42:53;;;;;;;4.07;2.90;;;;;;;6.87;100.00;96936.78;7422383;19;20365;-93
2023/09/30 23:45:36;;;;;;;6.70;3.63;;;;;;;5.69;100.00;96734.75;7421507;19;20380;-94
2023/09/30 23:48:44;;;;;;;3.40;3.10;;;;;;;7.05;100.00;96950.94;7426605;19;20377;-93
2023/09/30 23:51:17;;;;;;;3.67;3.37;;;;;;;5.38;100.00;96730.97;7425594;19;20420;-94
2023/09/30 23:54:11;;;;;;;4.37;3.73;;;;;;;7.03;100.00;96956.50;7428704;19;20384;-93
2023/09/30 23:57:04;;;;;;;3.77;3.37;;;;;;;6.86;100.00;96950.22;7425297;19;20380;-94
